Time;durP1;ratioP1;P1;durP2;ratioP2;P2;SDS_P1;SDS_P2;PMS_P1;PMS_P2;Temp;Humidity;BMP_temperature;BMP_pressure;BME280_temperature;BME280_humidity;BME280_pressure;Samples;Min_cycle;Max_cycle;Signal;HPM_P1;HPM_P2
2022/02/23 00:01:14;;;;;;;11.70;2.67;;;;;;;;;;5014071;28;20268;-86
2022/02/23 00:03:41;;;;;;;8.20;2.20;;;;;;;;;;5012774;28;20232;-85
2022/02/23 00:06:09;;;;;;;16.00;2.83;;;;;;;;;;5017384;28;20283;-86
2022/02/23 00:08:36;;;;;;;19.67;2.40;;;;;;;;;;5017350;28;20239;-85
2022/02/23 00:11:05;;;;;;;12.87;2.07;;;;;;;;;;5016713;28;20262;-85
2022/02/23 00:13:32;;;;;;;8.70;2.13;;;;;;;;;;5012420;28;20204;-86
2022/02/23 00:15:59;;;;;;;10.60;2.30;;;;;;;;;;5011125;28;20203;-86
2022/02/23 00:18:26;;;;;;;15.87;3.43;;;;;;;;;;5015071;28;20266;-87
2022/02/23 00:20:54;;;;;;;20.67;2.90;;;;;;;;;;5014871;28;20295;-87
2022/02/23 00:23:21;;;;;;;21.57;2.93;;;;;;;;;;5014475;28;20314;-87
2022/02/23 00:25:48;;;;;;;18.43;2.70;;;;;;;;;;5010081;28;20227;-86
2022/02/23 00:28:17;;;;;;;11.53;2.53;;;;;;;;;;5014709;28;20230;-86
2022/02/23 00:30:44;;;;;;;14.73;3.03;;;;;;;;;;5011795;28;20311;-86
2022/02/23 00:33:12;;;;;;;21.37;3.80;;;;;;;;;;5012617;28;20211;-86
2022/02/23 00:35:39;;;;;;;22.33;3.60;;;;;;;;;;5014353;28;20350;-85
2022/02/23 00:38:06;;;;;;;13.50;2.87;;;;;;;;;;5020789;23;20225;-78
2022/02/23 00:40:33;;;;;;;21.73;3.63;;;;;;;;;;4997647;28;20758;-78
2022/02/23 00:43:01;;;;;;;20.03;3.50;;;;;;;;;;5000784;28;20228;-79
2022/02/23 00:45:29;;;;;;;25.93;3.50;;;;;;;;;;4997494;28;20232;-78
2022/02/23 00:47:56;;;;;;;18.33;4.23;;;;;;;;;;5003305;28;20271;-78
2022/02/23 00:50:23;;;;;;;16.00;4.17;;;;;;;;;;4999915;28;20311;-78
2022/02/23 00:52:51;;;;;;;17.57;4.17;;;;;;;;;;4996194;28;20224;-78
2022/02/23 00:55:18;;;;;;;16.10;4.00;;;;;;;;;;4998478;28;20211;-77
2022/02/23 00:57:45;;;;;;;19.57;4.50;;;;;;;;;;4995454;28;20204;-79
2022/02/23 01:00:12;;;;;;;17.67;4.50;;;;;;;;;;4999979;28;20663;-79
2022/02/23 01:02:41;;;;;;;20.33;4.43;;;;;;;;;;4999951;28;20220;-79
2022/02/23 01:05:08;;;;;;;24.33;4.63;;;;;;;;;;4997851;28;20204;-79
2022/02/23 01:07:36;;;;;;;24.63;4.03;;;;;;;;;;5000184;28;20232;-79
2022/02/23 01:10:04;;;;;;;19.17;4.20;;;;;;;;;;5000200;28;20212;-81
2022/02/23 01:12:31;;;;;;;18.63;4.67;;;;;;;;;;4994850;28;20256;-80
2022/02/23 01:14:59;;;;;;;14.03;4.10;;;;;;;;;;4993619;28;20685;-80
2022/02/23 01:17:26;;;;;;;21.20;4.20;;;;;;;;;;4996895;28;20200;-80
2022/02/23 01:19:54;;;;;;;18.53;4.90;;;;;;;;;;4994613;28;20204;-81
2022/02/23 01:22:22;;;;;;;23.27;4.30;;;;;;;;;;4994748;28;20318;-80
2022/02/23 01:24:49;;;;;;;15.30;4.77;;;;;;;;;;4996550;28;20360;-80
2022/02/23 01:27:16;;;;;;;21.93;5.40;;;;;;;;;;4999551;28;20283;-79
2022/02/23 01:29:43;;;;;;;13.77;4.93;;;;;;;;;;4996506;28;20208;-79
2022/02/23 01:32:10;;;;;;;20.00;4.73;;;;;;;;;;4995817;28;20497;-80
2022/02/23 01:34:37;;;;;;;22.57;5.70;;;;;;;;;;4992020;28;20634;-79
2022/02/23 01:37:06;;;;;;;20.47;5.97;;;;;;;;;;4991986;28;20636;-79
2022/02/23 01:39:33;;;;;;;26.20;5.60;;;;;;;;;;4993783;28;20196;-79
2022/02/23 01:42:00;;;;;;;14.53;5.07;;;;;;;;;;4997863;28;20227;-80
2022/02/23 01:44:28;;;;;;;23.60;4.93;;;;;;;;;;5006018;28;20204;-80
2022/02/23 01:46:55;;;;;;;17.27;5.53;;;;;;;;;;5003898;28;20307;-80
2022/02/23 01:49:22;;;;;;;25.33;5.00;;;;;;;;;;4998759;28;20204;-80
2022/02/23 01:51:49;;;;;;;24.83;6.30;;;;;;;;;;4995658;28;20231;-79
2022/02/23 01:54:18;;;;;;;31.53;5.57;;;;;;;;;;4994250;28;20562;-79
2022/02/23 01:56:45;;;;;;;24.20;5.20;;;;;;;;;;4998557;28;20197;-80
2022/02/23 01:59:12;;;;;;;25.10;4.90;;;;;;;;;;4995204;28;20281;-79
2022/02/23 02:01:39;;;;;;;22.90;5.30;;;;;;;;;;4993118;28;20335;-80
2022/02/23 02:04:07;;;;;;;24.07;5.40;;;;;;;;;;4998599;28;20598;-79
2022/02/23 02:06:34;;;;;;;15.93;4.50;;;;;;;;;;4997092;28;20600;-79
2022/02/23 02:09:01;;;;;;;18.77;5.17;;;;;;;;;;4995138;28;20212;-79
2022/02/23 02:11:30;;;;;;;19.27;4.67;;;;;;;;;;4994842;28;20236;-80
2022/02/23 02:13:57;;;;;;;20.70;4.53;;;;;;;;;;4996780;28;20200;-80
2022/02/23 02:16:24;;;;;;;32.20;4.90;;;;;;;;;;4999301;28;20288;-80
2022/02/23 02:18:54;;;;;;;20.97;3.73;;;;;;;;;;4999961;28;20271;-79
2022/02/23 02:21:21;;;;;;;18.30;4.50;;;;;;;;;;4994695;28;20686;-79
2022/02/23 02:23:50;;;;;;;26.53;4.67;;;;;;;;;;4997583;28;20219;-79
2022/02/23 02:26:17;;;;;;;15.87;4.27;;;;;;;;;;4997405;28;20205;-81
2022/02/23 02:28:44;;;;;;;23.10;4.47;;;;;;;;;;4994916;28;20204;-79
2022/02/23 02:31:11;;;;;;;26.70;4.87;;;;;;;;;;4996014;28;20230;-80
2022/02/23 02:33:38;;;;;;;20.80;4.57;;;;;;;;;;5003395;28;20208;-81
2022/02/23 02:36:06;;;;;;;21.10;4.80;;;;;;;;;;5001777;28;20254;-81
2022/02/23 02:38:33;;;;;;;23.37;4.80;;;;;;;;;;5005034;28;20698;-80
2022/02/23 02:41:01;;;;;;;14.83;4.40;;;;;;;;;;5006271;28;20193;-81
2022/02/23 02:43:28;;;;;;;25.43;4.67;;;;;;;;;;4996364;28;20231;-80
2022/02/23 02:45:55;;;;;;;17.83;4.97;;;;;;;;;;5006258;28;20574;-80
2022/02/23 02:48:23;;;;;;;15.63;4.30;;;;;;;;;;4999331;28;20201;-80
2022/02/23 02:50:50;;;;;;;21.37;4.83;;;;;;;;;;4999417;28;20231;-81
2022/02/23 02:53:17;;;;;;;25.67;5.47;;;;;;;;;;4998186;28;20304;-80
2022/02/23 02:55:44;;;;;;;17.53;3.97;;;;;;;;;;4993856;28;20454;-80
2022/02/23 02:58:13;;;;;;;17.93;4.10;;;;;;;;;;4995182;28;20588;-80
2022/02/23 03:00:41;;;;;;;14.40;3.97;;;;;;;;;;4998557;28;20208;-80
2022/02/23 03:03:08;;;;;;;24.67;5.10;;;;;;;;;;4995007;28;20762;-79
2022/02/23 03:05:35;;;;;;;15.60;4.47;;;;;;;;;;5002676;28;20296;-80
2022/02/23 03:08:02;;;;;;;22.20;4.33;;;;;;;;;;4999454;28;20217;-80
2022/02/23 03:10:29;;;;;;;19.67;4.03;;;;;;;;;;5006568;28;20227;-81
2022/02/23 03:12:57;;;;;;;23.40;4.83;;;;;;;;;;5002313;28;20238;-80
2022/02/23 03:15:26;;;;;;;20.57;4.53;;;;;;;;;;5002644;28;20212;-81
2022/02/23 03:17:53;;;;;;;18.03;4.83;;;;;;;;;;4999030;28;20685;-80
2022/02/23 03:20:21;;;;;;;18.67;4.47;;;;;;;;;;5000871;28;20208;-80
2022/02/23 03:22:48;;;;;;;27.90;5.50;;;;;;;;;;5001913;28;20225;-81
2022/02/23 03:25:15;;;;;;;19.27;4.57;;;;;;;;;;5003787;28;20207;-80
2022/02/23 03:27:42;;;;;;;19.40;4.83;;;;;;;;;;4998188;28;20219;-81
2022/02/23 03:30:10;;;;;;;20.87;4.53;;;;;;;;;;5003929;28;20205;-80
2022/02/23 03:32:38;;;;;;;14.67;4.07;;;;;;;;;;5005213;28;20224;-80
2022/02/23 03:35:06;;;;;;;18.40;4.20;;;;;;;;;;5003811;28;20205;-80
2022/02/23 03:37:33;;;;;;;20.33;4.33;;;;;;;;;;5004347;28;20246;-79
2022/02/23 03:40:00;;;;;;;25.93;5.63;;;;;;;;;;5004987;28;20313;-81
2022/02/23 03:42:27;;;;;;;20.80;4.33;;;;;;;;;;5003966;28;20228;-81
2022/02/23 03:44:54;;;;;;;16.87;5.27;;;;;;;;;;4999933;28;20208;-79
2022/02/23 03:47:21;;;;;;;16.93;5.00;;;;;;;;;;4998940;28;20200;-79
2022/02/23 03:49:50;;;;;;;17.37;4.67;;;;;;;;;;4998307;28;20219;-79
2022/02/23 03:52:17;;;;;;;19.23;4.53;;;;;;;;;;4992684;28;20220;-78
2022/02/23 03:54:44;;;;;;;22.23;4.70;;;;;;;;;;4996955;28;20276;-79
2022/02/23 03:57:11;;;;;;;18.60;4.73;;;;;;;;;;4998068;28;20197;-80
2022/02/23 03:59:39;;;;;;;15.57;5.67;;;;;;;;;;4999033;28;20207;-79
2022/02/23 04:02:06;;;;;;;23.07;5.47;;;;;;;;;;4999872;28;20303;-80
2022/02/23 04:04:33;;;;;;;23.70;5.40;;;;;;;;;;4998003;28;20204;-79
2022/02/23 04:07:01;;;;;;;16.37;4.90;;;;;;;;;;4996293;28;20208;-79
2022/02/23 04:09:29;;;;;;;16.03;4.70;;;;;;;;;;4994375;28;20200;-79
2022/02/23 04:11:56;;;;;;;24.53;4.40;;;;;;;;;;4993671;28;20252;-80
2022/02/23 04:14:23;;;;;;;15.90;5.53;;;;;;;;;;4999293;28;20674;-79
2022/02/23 04:16:50;;;;;;;16.53;4.93;;;;;;;;;;4994753;28;20243;-79
2022/02/23 04:19:17;;;;;;;19.37;5.13;;;;;;;;;;4997045;28;20205;-80
2022/02/23 04:21:44;;;;;;;26.17;6.23;;;;;;;;;;4995309;28;20244;-79
2022/02/23 04:24:13;;;;;;;17.13;5.30;;;;;;;;;;5000826;28;20207;-80
2022/02/23 04:26:40;;;;;;;31.93;5.97;;;;;;;;;;4990465;28;20200;-79
2022/02/23 04:29:08;;;;;;;21.40;4.97;;;;;;;;;;4995765;28;20208;-79
2022/02/23 04:31:35;;;;;;;20.00;4.90;;;;;;;;;;4994617;28;20280;-79
2022/02/23 04:34:03;;;;;;;24.07;5.23;;;;;;;;;;4994555;28;20555;-80
2022/02/23 04:36:30;;;;;;;22.33;4.77;;;;;;;;;;4989819;28;20605;-80
2022/02/23 04:38:57;;;;;;;23.63;4.97;;;;;;;;;;4988813;28;20216;-80
2022/02/23 04:41:26;;;;;;;24.87;5.13;;;;;;;;;;4990355;28;20307;-80
2022/02/23 04:43:53;;;;;;;21.43;4.90;;;;;;;;;;4988509;28;20205;-80
2022/02/23 04:46:20;;;;;;;22.03;5.00;;;;;;;;;;4994678;28;20204;-79
2022/02/23 04:48:49;;;;;;;18.10;5.13;;;;;;;;;;4992555;28;20275;-79
2022/02/23 04:51:17;;;;;;;29.30;6.77;;;;;;;;;;4993334;28;20324;-80
2022/02/23 04:53:44;;;;;;;26.93;6.13;;;;;;;;;;4995579;28;20204;-79
2022/02/23 04:56:12;;;;;;;19.87;4.80;;;;;;;;;;4991676;28;20219;-78
2022/02/23 04:58:40;;;;;;;21.17;5.43;;;;;;;;;;4990754;28;20300;-80
2022/02/23 05:01:07;;;;;;;27.50;5.80;;;;;;;;;;4986756;28;20200;-80
2022/02/23 05:03:34;;;;;;;25.60;5.13;;;;;;;;;;4988805;28;20205;-80
2022/02/23 05:06:02;;;;;;;28.50;5.60;;;;;;;;;;4987956;28;20204;-80
2022/02/23 05:08:29;;;;;;;16.87;5.53;;;;;;;;;;4990152;28;20599;-78
2022/02/23 05:10:57;;;;;;;21.77;5.20;;;;;;;;;;4986609;28;20200;-80
2022/02/23 05:13:25;;;;;;;19.93;6.03;;;;;;;;;;4991207;28;20231;-80
2022/02/23 05:15:56;;;;;;;22.77;5.37;;;;;;;;;;4993452;28;20205;-79
2022/02/23 05:18:23;;;;;;;22.77;5.97;;;;;;;;;;4986316;28;20307;-79
2022/02/23 05:20:51;;;;;;;33.83;5.53;;;;;;;;;;4989506;28;20509;-79
2022/02/23 05:23:18;;;;;;;16.17;4.77;;;;;;;;;;4988787;28;20234;-79
2022/02/23 05:25:45;;;;;;;24.37;4.97;;;;;;;;;;4986846;28;20212;-79
2022/02/23 05:28:12;;;;;;;17.83;4.73;;;;;;;;;;4992777;28;20211;-79
2022/02/23 05:30:39;;;;;;;19.77;4.37;;;;;;;;;;4994400;28;20301;-80
2022/02/23 05:33:08;;;;;;;26.30;5.33;;;;;;;;;;4996324;28;20255;-79
2022/02/23 05:35:36;;;;;;;18.70;4.80;;;;;;;;;;4995449;28;20236;-80
2022/02/23 05:38:03;;;;;;;23.87;5.33;;;;;;;;;;4996026;28;20299;-79
2022/02/23 05:40:30;;;;;;;32.67;5.43;;;;;;;;;;4992464;28;20667;-79
2022/02/23 05:42:57;;;;;;;19.33;5.57;;;;;;;;;;4992619;28;20230;-79
2022/02/23 05:45:25;;;;;;;23.97;5.60;;;;;;;;;;4996069;28;20296;-79
2022/02/23 05:47:52;;;;;;;28.53;5.00;;;;;;;;;;4992944;28;20956;-79
2022/02/23 05:50:20;;;;;;;24.17;5.20;;;;;;;;;;4996598;28;20204;-79
2022/02/23 05:52:47;;;;;;;13.77;4.37;;;;;;;;;;4995551;28;20331;-79
2022/02/23 05:55:15;;;;;;;31.10;5.63;;;;;;;;;;4994978;28;20197;-80
2022/02/23 05:57:42;;;;;;;25.97;5.17;;;;;;;;;;4995665;28;20240;-79
2022/02/23 06:00:11;;;;;;;21.43;5.10;;;;;;;;;;4995892;28;20211;-79
2022/02/23 06:02:38;;;;;;;26.37;5.53;;;;;;;;;;4997903;28;20307;-80
2022/02/23 06:05:05;;;;;;;22.07;4.30;;;;;;;;;;4995292;28;20268;-80
2022/02/23 06:07:34;;;;;;;18.17;5.40;;;;;;;;;;4992870;28;20201;-78
2022/02/23 06:10:02;;;;;;;23.43;5.10;;;;;;;;;;4998303;28;20205;-79
2022/02/23 06:12:29;;;;;;;15.80;4.30;;;;;;;;;;4994573;28;20677;-79
2022/02/23 06:14:56;;;;;;;16.93;4.83;;;;;;;;;;4992560;28;20201;-80
2022/02/23 06:17:24;;;;;;;24.30;6.40;;;;;;;;;;4995929;28;20197;-79
2022/02/23 06:19:51;;;;;;;24.20;6.00;;;;;;;;;;4993385;28;20204;-78
2022/02/23 06:22:19;;;;;;;21.47;4.60;;;;;;;;;;4993803;28;20230;-79
2022/02/23 06:24:47;;;;;;;20.97;5.87;;;;;;;;;;4993983;28;20204;-79
2022/02/23 06:27:17;;;;;;;17.40;5.20;;;;;;;;;;4993250;28;20750;-79
2022/02/23 06:29:44;;;;;;;18.37;5.70;;;;;;;;;;4995374;28;20658;-79
2022/02/23 06:32:11;;;;;;;24.07;5.43;;;;;;;;;;4999783;28;20272;-80
2022/02/23 06:34:39;;;;;;;24.63;5.93;;;;;;;;;;4998687;28;20209;-79
2022/02/23 06:37:06;;;;;;;18.90;5.57;;;;;;;;;;5001143;28;20763;-79
2022/02/23 06:39:36;;;;;;;23.93;6.53;;;;;;;;;;5049901;22;20726;-86
2022/02/23 06:51:07;;;;;;;21.57;4.73;;;;;;;;;;4929447;29;20243;-87
2022/02/23 06:53:34;;;;;;;25.47;6.27;;;;;;;;;;4943299;29;20230;-87
2022/02/23 06:56:05;;;;;;;18.17;5.30;;;;;;;;;;4969046;28;20589;-87
2022/02/23 06:58:34;;;;;;;12.87;5.47;;;;;;;;;;4998084;28;20208;-86
2022/02/23 07:01:04;;;;;;;16.67;5.27;;;;;;;;;;4997990;28;20221;-86
2022/02/23 07:03:32;;;;;;;23.80;7.03;;;;;;;;;;4999625;28;20208;-87
2022/02/23 07:05:59;;;;;;;33.50;7.43;;;;;;;;;;4996313;28;20212;-87
2022/02/23 07:08:26;;;;;;;23.80;6.40;;;;;;;;;;4998821;28;20845;-87
2022/02/23 07:10:54;;;;;;;18.77;4.77;;;;;;;;;;4999684;28;20229;-88
2022/02/23 07:13:21;;;;;;;18.10;5.93;;;;;;;;;;4999669;28;20532;-87
2022/02/23 07:15:50;;;;;;;28.70;5.40;;;;;;;;;;5002328;28;20660;-87
2022/02/23 07:18:17;;;;;;;23.60;5.03;;;;;;;;;;4998498;28;20531;-87
2022/02/23 07:20:44;;;;;;;20.57;4.60;;;;;;;;;;4999775;28;20255;-87
2022/02/23 07:23:11;;;;;;;21.20;5.20;;;;;;;;;;5006198;28;20227;-88
2022/02/23 07:25:38;;;;;;;22.00;4.53;;;;;;;;;;5008207;28;20216;-87
2022/02/23 07:28:06;;;;;;;28.73;5.40;;;;;;;;;;5001228;28;20739;-87
2022/02/23 07:30:33;;;;;;;18.07;4.73;;;;;;;;;;5004628;28;20217;-87
2022/02/23 07:33:01;;;;;;;25.50;5.43;;;;;;;;;;5002660;28;20256;-88
2022/02/23 07:35:29;;;;;;;30.80;8.63;;;;;;;;;;5000641;28;20208;-86
2022/02/23 07:38:04;;;;;;;19.43;6.80;;;;;;;;;;5002324;28;20222;-88
2022/02/23 07:40:31;;;;;;;19.77;5.63;;;;;;;;;;4998064;28;20699;-87
2022/02/23 07:43:00;;;;;;;15.90;5.03;;;;;;;;;;5003127;28;20239;-88
2022/02/23 07:45:27;;;;;;;20.57;6.87;;;;;;;;;;4999978;28;21189;-87
2022/02/23 07:47:54;;;;;;;21.57;6.97;;;;;;;;;;5000800;28;20620;-88
2022/02/23 07:50:23;;;;;;;28.10;7.07;;;;;;;;;;5002146;28;20695;-87
2022/02/23 07:52:50;;;;;;;24.33;5.67;;;;;;;;;;4997396;28;20315;-85
2022/02/23 07:55:20;;;;;;;20.80;6.27;;;;;;;;;;4997646;28;20204;-87
2022/02/23 07:57:48;;;;;;;23.73;5.57;;;;;;;;;;4998745;28;20653;-86
2022/02/23 08:00:18;;;;;;;18.10;5.27;;;;;;;;;;4997172;28;20236;-87
2022/02/23 08:02:45;;;;;;;22.63;4.73;;;;;;;;;;5002685;28;20268;-86
2022/02/23 08:05:12;;;;;;;19.30;5.00;;;;;;;;;;4996204;28;20229;-87
2022/02/23 08:07:41;;;;;;;19.83;6.23;;;;;;;;;;4996820;28;20606;-87
2022/02/23 08:10:11;;;;;;;19.63;5.87;;;;;;;;;;4995681;28;20319;-85
2022/02/23 08:12:39;;;;;;;22.53;6.70;;;;;;;;;;4998840;28;20256;-87
2022/02/23 08:20:38;;;;;;;25.97;7.47;;;;;;;;;;4990703;28;20228;-86
2022/02/23 08:23:07;;;;;;;30.90;6.23;;;;;;;;;;4994252;28;20212;-86
2022/02/23 08:25:34;;;;;;;24.07;7.00;;;;;;;;;;4990115;28;20212;-85
2022/02/23 08:28:01;;;;;;;23.73;6.00;;;;;;;;;;4988248;28;20296;-87
2022/02/23 08:30:29;;;;;;;26.53;5.33;;;;;;;;;;4985347;28;20232;-86
2022/02/23 08:33:00;;;;;;;18.13;5.27;;;;;;;;;;4991017;28;20232;-88
2022/02/23 08:35:27;;;;;;;19.47;5.43;;;;;;;;;;4993046;28;20215;-86
2022/02/23 08:37:55;;;;;;;16.90;5.30;;;;;;;;;;4990967;28;20212;-86
2022/02/23 08:40:24;;;;;;;24.37;5.63;;;;;;;;;;4994052;28;20235;-87
2022/02/23 08:42:51;;;;;;;29.53;4.90;;;;;;;;;;4990655;28;20237;-86
2022/02/23 08:45:18;;;;;;;13.77;4.30;;;;;;;;;;4991167;28;20633;-86
2022/02/23 08:47:45;;;;;;;16.27;4.40;;;;;;;;;;4995454;28;20215;-85
2022/02/23 08:50:13;;;;;;;14.60;4.87;;;;;;;;;;4993203;28;20799;-87
2022/02/23 08:52:40;;;;;;;16.13;4.20;;;;;;;;;;4990712;28;20264;-87
2022/02/23 08:55:09;;;;;;;45.63;14.23;;;;;;;;;;4996102;28;20248;-87
2022/02/23 08:57:38;;;;;;;23.77;7.87;;;;;;;;;;4992907;28;20303;-87
2022/02/23 09:00:07;;;;;;;55.53;18.43;;;;;;;;;;4991887;28;20303;-86
2022/02/23 09:02:35;;;;;;;56.20;19.37;;;;;;;;;;4990541;28;20283;-88
2022/02/23 09:05:02;;;;;;;28.40;8.33;;;;;;;;;;4990790;28;20286;-87
2022/02/23 09:07:30;;;;;;;30.23;5.23;;;;;;;;;;4992616;28;20204;-87
2022/02/23 09:09:57;;;;;;;18.93;4.73;;;;;;;;;;4989163;28;20665;-86
2022/02/23 09:12:24;;;;;;;15.63;3.60;;;;;;;;;;4993052;28;20307;-86
2022/02/23 09:14:53;;;;;;;17.27;4.13;;;;;;;;;;4994713;28;20287;-86
2022/02/23 09:17:21;;;;;;;13.00;3.40;;;;;;;;;;4989271;28;20725;-87
2022/02/23 09:19:49;;;;;;;14.93;3.20;;;;;;;;;;4992731;28;20579;-86
2022/02/23 09:22:17;;;;;;;14.53;3.30;;;;;;;;;;4990126;28;20484;-86
2022/02/23 09:24:44;;;;;;;20.50;4.10;;;;;;;;;;4995840;28;20206;-87
2022/02/23 09:27:11;;;;;;;21.43;3.37;;;;;;;;;;4990603;28;20711;-85
2022/02/23 09:29:39;;;;;;;16.90;3.30;;;;;;;;;;4993606;28;20214;-85
2022/02/23 09:32:08;;;;;;;20.07;3.00;;;;;;;;;;4987962;28;20205;-86
2022/02/23 09:34:35;;;;;;;14.93;2.40;;;;;;;;;;4992853;28;20697;-84
2022/02/23 09:37:02;;;;;;;21.57;2.27;;;;;;;;;;4988205;28;20255;-86
2022/02/23 09:39:30;;;;;;;20.17;3.93;;;;;;;;;;4992933;28;20231;-86
2022/02/23 09:41:58;;;;;;;17.90;2.17;;;;;;;;;;4989746;28;20292;-85
2022/02/23 09:44:28;;;;;;;7.70;2.20;;;;;;;;;;4995476;28;20207;-86
2022/02/23 09:46:55;;;;;;;15.97;2.00;;;;;;;;;;4990157;28;20707;-86
2022/02/23 09:49:24;;;;;;;12.07;2.10;;;;;;;;;;4993171;28;20248;-86
2022/02/23 09:51:57;;;;;;;18.27;3.27;;;;;;;;;;4999724;28;20219;-85
2022/02/23 09:54:27;;;;;;;17.30;2.33;;;;;;;;;;4999552;28;21094;-85
2022/02/23 09:56:59;;;;;;;7.70;1.27;;;;;;;;;;5001514;28;20212;-87
2022/02/23 09:59:28;;;;;;;9.30;1.60;;;;;;;;;;4987885;28;20763;-86
2022/02/23 10:01:55;;;;;;;15.73;2.13;;;;;;;;;;4987994;28;20267;-86
2022/02/23 10:04:24;;;;;;;16.20;2.00;;;;;;;;;;4984246;28;20596;-86
2022/02/23 10:06:52;;;;;;;8.20;1.63;;;;;;;;;;4994273;28;20227;-85
2022/02/23 10:09:19;;;;;;;14.10;2.23;;;;;;;;;;4993520;28;20668;-85
2022/02/23 10:11:48;;;;;;;10.63;2.43;;;;;;;;;;4994674;28;20755;-85
2022/02/23 10:14:16;;;;;;;9.80;1.70;;;;;;;;;;4986415;28;20225;-85
2022/02/23 10:16:46;;;;;;;8.90;2.07;;;;;;;;;;4985911;28;20210;-86
2022/02/23 10:19:14;;;;;;;10.27;1.70;;;;;;;;;;4990076;28;20311;-86
2022/02/23 10:21:50;;;;;;;14.33;1.90;;;;;;;;;;4993482;28;20209;-87
2022/02/23 10:24:25;;;;;;;10.17;1.60;;;;;;;;;;4993306;28;20299;-86
2022/02/23 10:26:56;;;;;;;15.03;2.17;;;;;;;;;;4989432;28;20218;-85
2022/02/23 10:29:27;;;;;;;8.67;2.17;;;;;;;;;;4986790;28;20233;-86
2022/02/23 10:31:55;;;;;;;13.90;1.97;;;;;;;;;;4994435;28;20217;-85
2022/02/23 10:34:24;;;;;;;10.60;2.10;;;;;;;;;;4988658;28;20327;-87
2022/02/23 10:37:00;;;;;;;13.63;2.27;;;;;;;;;;4983039;28;20252;-86
2022/02/23 10:39:35;;;;;;;14.60;2.33;;;;;;;;;;4993113;28;20232;-86
2022/02/23 10:42:06;;;;;;;16.83;2.40;;;;;;;;;;4992977;28;20213;-85
2022/02/23 10:44:33;;;;;;;12.80;1.90;;;;;;;;;;4994037;28;20228;-88
2022/02/23 10:47:01;;;;;;;10.07;1.93;;;;;;;;;;4991586;28;20201;-87
2022/02/23 10:49:28;;;;;;;10.27;2.37;;;;;;;;;;4995169;28;20221;-87
2022/02/23 10:52:06;;;;;;;6.47;1.50;;;;;;;;;;4993757;28;20747;-85
2022/02/23 10:54:35;;;;;;;7.77;1.77;;;;;;;;;;4986860;28;20271;-86
2022/02/23 10:57:18;;;;;;;15.43;2.20;;;;;;;;;;4993409;28;20213;-85
2022/02/23 10:59:45;;;;;;;10.57;1.50;;;;;;;;;;4998543;28;20242;-87
2022/02/23 11:02:12;;;;;;;5.70;1.40;;;;;;;;;;4994006;28;20231;-86
2022/02/23 11:04:39;;;;;;;12.37;1.80;;;;;;;;;;4990102;28;20202;-85
2022/02/23 11:07:07;;;;;;;8.83;1.67;;;;;;;;;;4995151;28;20252;-86
2022/02/23 11:09:35;;;;;;;12.63;1.50;;;;;;;;;;4989326;28;20221;-86
2022/02/23 11:12:04;;;;;;;12.03;2.13;;;;;;;;;;4990942;28;20240;-85
2022/02/23 11:14:32;;;;;;;9.33;1.83;;;;;;;;;;4993514;28;20595;-85
2022/02/23 11:17:00;;;;;;;10.23;1.43;;;;;;;;;;4992470;28;20647;-86
2022/02/23 11:19:28;;;;;;;10.87;1.80;;;;;;;;;;4990857;28;20288;-85
2022/02/23 11:21:56;;;;;;;8.67;1.47;;;;;;;;;;4992637;28;20228;-86
2022/02/23 11:24:23;;;;;;;6.50;1.33;;;;;;;;;;4991530;28;20670;-86
2022/02/23 11:26:55;;;;;;;11.00;1.30;;;;;;;;;;4992665;28;20236;-84
2022/02/23 11:29:25;;;;;;;8.77;1.47;;;;;;;;;;4998159;28;20241;-85
2022/02/23 11:31:53;;;;;;;11.83;1.80;;;;;;;;;;4993468;28;20225;-86
2022/02/23 11:34:22;;;;;;;9.23;1.60;;;;;;;;;;4995838;28;20315;-86
2022/02/23 11:36:52;;;;;;;10.63;1.60;;;;;;;;;;4995017;28;20210;-86
2022/02/23 11:39:20;;;;;;;12.63;1.67;;;;;;;;;;4998449;28;20255;-87
2022/02/23 11:41:49;;;;;;;11.53;1.70;;;;;;;;;;4994696;28;20336;-86
2022/02/23 11:44:19;;;;;;;9.30;1.87;;;;;;;;;;4991731;28;20210;-86
2022/02/23 11:47:04;;;;;;;5.60;1.10;;;;;;;;;;4997644;28;20212;-86
2022/02/23 11:49:32;;;;;;;9.30;1.30;;;;;;;;;;4986751;28;20304;-85
2022/02/23 11:54:56;;;;;;;7.63;1.40;;;;;;;;;;4996953;28;20239;-87
2022/02/23 11:57:43;;;;;;;13.50;1.60;;;;;;;;;;5001568;28;20227;-87
2022/02/23 12:00:13;;;;;;;9.23;1.20;;;;;;;;;;4997607;28;20802;-86
2022/02/23 12:02:41;;;;;;;8.40;1.50;;;;;;;;;;4996306;28;20623;-86
2022/02/23 12:05:10;;;;;;;9.43;1.70;;;;;;;;;;5000166;28;20254;-87
2022/02/23 12:07:52;;;;;;;7.20;1.43;;;;;;;;;;4998288;28;20220;-87
2022/02/23 12:10:27;;;;;;;9.70;1.37;;;;;;;;;;4999563;28;20233;-87
2022/02/23 12:12:55;;;;;;;7.47;1.20;;;;;;;;;;4998010;28;20218;-86
2022/02/23 12:15:27;;;;;;;7.47;1.27;;;;;;;;;;5000748;28;20208;-86
2022/02/23 12:17:58;;;;;;;6.80;1.30;;;;;;;;;;4999283;28;20656;-86
2022/02/23 12:20:45;;;;;;;7.67;1.13;;;;;;;;;;4999187;28;20236;-85
2022/02/23 12:23:27;;;;;;;4.50;1.23;;;;;;;;;;4998405;28;20208;-85
2022/02/23 12:25:57;;;;;;;6.70;1.17;;;;;;;;;;4997173;28;20224;-86
2022/02/23 12:28:26;;;;;;;9.63;1.40;;;;;;;;;;4998657;28;20208;-86
2022/02/23 12:30:58;;;;;;;8.40;1.20;;;;;;;;;;4992989;28;20234;-85
2022/02/23 12:33:25;;;;;;;4.60;1.13;;;;;;;;;;4993333;28;20836;-87
2022/02/23 12:35:53;;;;;;;8.47;1.47;;;;;;;;;;4997950;28;20292;-87
2022/02/23 12:38:24;;;;;;;9.87;1.60;;;;;;;;;;4996521;28;20224;-87
2022/02/23 12:40:53;;;;;;;6.23;1.10;;;;;;;;;;5055756;23;20242;-84
2022/02/23 12:43:21;;;;;;;5.53;1.30;;;;;;;;;;5009915;28;20215;-84
2022/02/23 12:45:51;;;;;;;4.73;1.10;;;;;;;;;;5025005;28;20282;-85
2022/02/23 12:48:30;;;;;;;7.00;1.07;;;;;;;;;;5023404;28;20291;-84
2022/02/23 12:51:02;;;;;;;4.67;1.50;;;;;;;;;;5006441;28;20239;-84
2022/02/23 12:53:33;;;;;;;8.87;1.07;;;;;;;;;;5009344;28;20292;-84
2022/02/23 12:56:15;;;;;;;8.53;1.83;;;;;;;;;;5010749;28;20215;-83
2022/02/23 12:58:44;;;;;;;12.63;1.33;;;;;;;;;;5012610;28;20204;-84
2022/02/23 13:01:19;;;;;;;7.80;1.53;;;;;;;;;;5026404;28;20254;-85
2022/02/23 13:03:48;;;;;;;5.83;1.40;;;;;;;;;;5014633;28;20200;-84
2022/02/23 13:06:15;;;;;;;5.87;1.10;;;;;;;;;;5012988;28;20547;-84
2022/02/23 13:08:42;;;;;;;8.63;1.20;;;;;;;;;;5004206;28;20232;-85
2022/02/23 13:11:11;;;;;;;7.10;1.30;;;;;;;;;;5007460;28;20393;-85
2022/02/23 13:13:40;;;;;;;7.10;1.40;;;;;;;;;;5007345;28;20674;-85
2022/02/23 13:16:07;;;;;;;6.00;1.30;;;;;;;;;;5009497;28;20204;-85
2022/02/23 13:18:38;;;;;;;3.97;1.00;;;;;;;;;;5010086;28;20236;-85
2022/02/23 13:21:12;;;;;;;4.77;1.30;;;;;;;;;;5013131;28;20220;-84
2022/02/23 13:23:52;;;;;;;7.33;1.30;;;;;;;;;;5008474;28;20216;-85
2022/02/23 13:26:20;;;;;;;6.37;1.30;;;;;;;;;;5008488;28;20267;-84
2022/02/23 13:29:02;;;;;;;3.70;1.17;;;;;;;;;;5013993;28;20216;-84
2022/02/23 13:31:33;;;;;;;5.90;1.40;;;;;;;;;;5005221;28;20296;-85
2022/02/23 13:34:18;;;;;;;6.80;1.60;;;;;;;;;;5011882;28;20220;-85
2022/02/23 13:36:48;;;;;;;6.87;1.93;;;;;;;;;;5014115;28;20219;-85
2022/02/23 13:39:18;;;;;;;6.97;1.70;;;;;;;;;;5016612;28;20258;-84
2022/02/23 13:41:49;;;;;;;10.97;1.77;;;;;;;;;;5013934;28;20763;-84
2022/02/23 13:44:21;;;;;;;6.43;1.07;;;;;;;;;;5015467;28;20216;-85
2022/02/23 13:46:48;;;;;;;3.97;1.03;;;;;;;;;;5011491;28;20627;-83
2022/02/23 13:49:15;;;;;;;8.43;1.50;;;;;;;;;;5012947;28;20283;-83
2022/02/23 13:51:44;;;;;;;10.00;1.23;;;;;;;;;;5015458;28;20208;-83
2022/02/23 13:54:13;;;;;;;5.13;1.20;;;;;;;;;;5012162;28;20507;-83
2022/02/23 13:56:43;;;;;;;5.47;1.10;;;;;;;;;;5017792;28;20639;-84
2022/02/23 13:59:13;;;;;;;9.30;1.57;;;;;;;;;;5014068;28;20274;-84
2022/02/23 14:02:01;;;;;;;7.43;1.57;;;;;;;;;;5012425;28;20254;-84
2022/02/23 14:04:42;;;;;;;8.10;1.30;;;;;;;;;;5013352;28;20209;-84
2022/02/23 14:07:10;;;;;;;8.47;1.50;;;;;;;;;;5008769;28;20197;-84
2022/02/23 14:09:43;;;;;;;8.50;1.50;;;;;;;;;;5015510;28;20224;-84
2022/02/23 14:12:14;;;;;;;6.57;1.20;;;;;;;;;;5016357;28;20208;-83
2022/02/23 14:14:43;;;;;;;4.70;1.00;;;;;;;;;;5013329;28;20234;-84
2022/02/23 14:17:25;;;;;;;9.47;1.10;;;;;;;;;;5020874;28;20227;-83
2022/02/23 14:19:52;;;;;;;7.53;1.40;;;;;;;;;;5019115;28;20313;-84
2022/02/23 14:22:21;;;;;;;4.87;1.03;;;;;;;;;;5012948;28;20254;-84
2022/02/23 14:25:04;;;;;;;5.70;1.10;;;;;;;;;;5013029;28;20210;-85
2022/02/23 14:27:33;;;;;;;5.83;1.40;;;;;;;;;;5013569;28;20270;-85
2022/02/23 14:30:00;;;;;;;6.37;1.40;;;;;;;;;;5004719;28;20315;-85
2022/02/23 14:32:29;;;;;;;6.37;1.30;;;;;;;;;;5010355;28;20219;-85
2022/02/23 14:34:59;;;;;;;4.53;1.03;;;;;;;;;;5010135;28;20233;-84
2022/02/23 14:37:26;;;;;;;5.40;1.63;;;;;;;;;;5018985;28;20205;-84
2022/02/23 14:39:55;;;;;;;7.73;1.37;;;;;;;;;;5017414;28;20251;-83
2022/02/23 14:45:30;;;;;;;8.50;1.40;;;;;;;;;;5008240;28;20211;-84
2022/02/23 14:47:58;;;;;;;8.57;1.80;;;;;;;;;;5024363;28;20668;-84
2022/02/23 14:50:27;;;;;;;4.37;1.70;;;;;;;;;;5028180;28;20209;-84
2022/02/23 14:52:54;;;;;;;11.57;2.60;;;;;;;;;;5029732;28;20192;-84
2022/02/23 14:55:23;;;;;;;7.97;1.40;;;;;;;;;;5023098;28;20260;-85
2022/02/23 14:57:50;;;;;;;10.60;1.90;;;;;;;;;;5022782;28;20216;-84
2022/02/23 15:00:19;;;;;;;5.80;1.63;;;;;;;;;;5015872;28;20232;-84
2022/02/23 15:02:48;;;;;;;7.60;1.33;;;;;;;;;;5025049;28;20216;-84